Pagina principale
METAR-TAF:

METAR-TAF

Aeroporti :

Flessinga, Paesi Bassi

latitudine: 51-27N, longitudine: 3-36E, altezza: 10 m

Osservazione

Il bollettino è stato emesso 29 minuti fa, alle 06:55 UTC
Vento 10 kt da ovest/sud-ovest
Temperature 6°C
Umidità 81%
Pressione 1009 hPa
Visibilità 10 km o più

METAR: EHFS 180655Z AUTO 25010KT 9999 BKN037/// 06/03 Q1009 W///H///

Ora: 08:24 (07:24 UTC)


TAF: mancante

Osservazioni e previsioni meteorologiche di più di 4000 aeroporti (messaggi METAR e TAF).

Le stazioni disponibili sono rappresentate dai dischi gialli e rossi sulla carta.

Puntare il mouse per vedere il nome della stazione.

Clicca sopra per visualizzare le osservazioni e previsioni meteorologiche.

Per cambiare la mappa : fare clic sui pulsanti verdi con una croce nera per ingrandire, il pulsante verde con un trattino per diminuire, o sulla freccia verde per le mappe adiacenti.


METAR-TAF: